XAJNT MMTO-MMPB
Flight info
| Callsign | XAJNT |
|---|---|
| Flight time | 0h 35m |
| Altitude | 23000 |
| Route | TLC DCT OVISO/N0458F170 T80 RIBIS T70 TAKAL DCT PBC |
| Aircraft | C750/M-SBDE3FGHRWXY/S |
Departure
| Time | 2026-04-21 00:32 |
|---|---|
| Airport | Adolfo López Mateos International Airport (MMTO) |
Arrival
| Time | 2026-04-21 01:08 |
|---|---|
| Airport | Hermanos Serdán International Airport (MMPB) |
| Time | Latitude | Longitude | Altitude | Speed | Heading |
|---|---|---|---|---|---|
| 2026-04-21 00:18 | 19.32782 | -99.56631 | 8470 ft | 0 kts | 57° |
| 2026-04-21 00:24 | 19.32784 | -99.56628 | 8467 ft | 1 kts | 55° |
| 2026-04-21 00:25 | 19.32785 | -99.56626 | 8467 ft | 1 kts | 54° |
| 2026-04-21 00:25 | 19.32803 | -99.56601 | 8466 ft | 8 kts | 56° |
| 2026-04-21 00:25 | 19.32839 | -99.56539 | 8469 ft | 13 kts | 64° |
| 2026-04-21 00:25 | 19.32880 | -99.56446 | 8470 ft | 11 kts | 54° |
| 2026-04-21 00:26 | 19.32921 | -99.56445 | 8470 ft | 5 kts | 339° |
| 2026-04-21 00:26 | 19.32954 | -99.56458 | 8470 ft | 5 kts | 339° |
| 2026-04-21 00:26 | 19.32991 | -99.56476 | 8470 ft | 7 kts | 335° |
| 2026-04-21 00:26 | 19.33043 | -99.56500 | 8470 ft | 9 kts | 338° |
| 2026-04-21 00:27 | 19.33109 | -99.56530 | 8466 ft | 11 kts | 336° |
| 2026-04-21 00:27 | 19.33185 | -99.56563 | 8470 ft | 13 kts | 338° |
| 2026-04-21 00:27 | 19.33269 | -99.56603 | 8470 ft | 12 kts | 337° |
| 2026-04-21 00:27 | 19.33350 | -99.56639 | 8470 ft | 14 kts | 337° |
| 2026-04-21 00:28 | 19.33449 | -99.56683 | 8469 ft | 17 kts | 337° |
| 2026-04-21 00:28 | 19.33564 | -99.56735 | 8468 ft | 18 kts | 335° |
| 2026-04-21 00:28 | 19.33684 | -99.56791 | 8468 ft | 20 kts | 336° |
| 2026-04-21 00:28 | 19.33820 | -99.56851 | 8468 ft | 22 kts | 338° |
| 2026-04-21 00:29 | 19.33955 | -99.56912 | 8468 ft | 19 kts | 338° |
| 2026-04-21 00:29 | 19.34070 | -99.56952 | 8468 ft | 16 kts | 356° |
| 2026-04-21 00:29 | 19.34161 | -99.56941 | 8468 ft | 12 kts | 6° |
| 2026-04-21 00:29 | 19.34230 | -99.56933 | 8467 ft | 8 kts | 6° |
| 2026-04-21 00:30 | 19.34276 | -99.56928 | 8466 ft | 5 kts | 6° |
| 2026-04-21 00:30 | 19.34292 | -99.56925 | 8468 ft | 0 kts | 28° |
| 2026-04-21 00:30 | 19.34296 | -99.56923 | 8462 ft | 1 kts | 27° |
| 2026-04-21 00:30 | 19.34303 | -99.56918 | 8468 ft | 0 kts | 43° |
| 2026-04-21 00:31 | 19.34299 | -99.56906 | 8468 ft | 6 kts | 104° |
| 2026-04-21 00:31 | 19.34246 | -99.56849 | 8468 ft | 21 kts | 152° |
| 2026-04-21 00:31 | 19.33791 | -99.56645 | 8465 ft | 118 kts | 157° |
| 2026-04-21 00:32 | 19.32894 | -99.56238 | 8726 ft | 152 kts | 159° |
| 2026-04-21 00:32 | 19.31855 | -99.55744 | 9216 ft | 176 kts | 154° |
| 2026-04-21 00:32 | 19.30684 | -99.55146 | 9595 ft | 197 kts | 153° |
| 2026-04-21 00:32 | 19.29420 | -99.54561 | 10122 ft | 205 kts | 166° |
| 2026-04-21 00:33 | 19.28001 | -99.54533 | 10759 ft | 204 kts | 181° |
| 2026-04-21 00:33 | 19.26535 | -99.54608 | 11191 ft | 223 kts | 181° |
| 2026-04-21 00:33 | 19.24891 | -99.54680 | 11555 ft | 250 kts | 181° |
| 2026-04-21 00:33 | 19.23064 | -99.54757 | 11928 ft | 275 kts | 181° |
| 2026-04-21 00:34 | 19.21061 | -99.54841 | 12288 ft | 300 kts | 181° |
| 2026-04-21 00:34 | 19.18915 | -99.54934 | 12793 ft | 316 kts | 181° |
| 2026-04-21 00:34 | 19.16672 | -99.55029 | 13332 ft | 331 kts | 181° |
| 2026-04-21 00:34 | 19.14272 | -99.55128 | 13482 ft | 357 kts | 181° |
| 2026-04-21 00:35 | 19.11707 | -99.55231 | 13665 ft | 378 kts | 181° |
| 2026-04-21 00:35 | 19.09113 | -99.55335 | 14455 ft | 377 kts | 181° |
| 2026-04-21 00:35 | 19.06466 | -99.55441 | 15096 ft | 381 kts | 181° |
| 2026-04-21 00:35 | 19.03812 | -99.55261 | 15581 ft | 386 kts | 165° |
| 2026-04-21 00:36 | 19.01438 | -99.53994 | 16254 ft | 384 kts | 143° |
| 2026-04-21 00:36 | 18.99474 | -99.52055 | 16672 ft | 394 kts | 130° |
| 2026-04-21 00:36 | 18.97886 | -99.49593 | 16657 ft | 416 kts | 118° |
| 2026-04-21 00:36 | 18.96451 | -99.46863 | 16673 ft | 434 kts | 122° |
| 2026-04-21 00:37 | 18.94623 | -99.44312 | 16684 ft | 436 kts | 129° |
| 2026-04-21 00:37 | 18.92615 | -99.41851 | 16682 ft | 443 kts | 130° |
| 2026-04-21 00:37 | 18.90577 | -99.39392 | 16675 ft | 445 kts | 130° |
| 2026-04-21 00:37 | 18.88541 | -99.36907 | 16683 ft | 447 kts | 130° |
| 2026-04-21 00:38 | 18.86505 | -99.34415 | 16682 ft | 448 kts | 130° |
| 2026-04-21 00:38 | 18.84474 | -99.31927 | 16685 ft | 448 kts | 130° |
| 2026-04-21 00:38 | 18.82463 | -99.29463 | 16682 ft | 449 kts | 130° |
| 2026-04-21 00:38 | 18.80424 | -99.26966 | 16683 ft | 449 kts | 130° |
| 2026-04-21 00:39 | 18.78387 | -99.24474 | 16680 ft | 448 kts | 130° |
| 2026-04-21 00:39 | 18.76350 | -99.21982 | 16678 ft | 448 kts | 130° |
| 2026-04-21 00:39 | 18.74315 | -99.19491 | 16668 ft | 448 kts | 130° |
| 2026-04-21 00:39 | 18.72282 | -99.17001 | 16645 ft | 448 kts | 130° |
| 2026-04-21 00:40 | 18.70247 | -99.14507 | 16628 ft | 448 kts | 130° |
| 2026-04-21 00:40 | 18.68214 | -99.12013 | 16604 ft | 448 kts | 130° |
| 2026-04-21 00:40 | 18.66152 | -99.09545 | 16570 ft | 448 kts | 132° |
| 2026-04-21 00:40 | 18.64020 | -99.07145 | 16541 ft | 448 kts | 132° |
| 2026-04-21 00:41 | 18.61957 | -99.04696 | 16511 ft | 447 kts | 129° |
| 2026-04-21 00:41 | 18.60419 | -99.01851 | 16463 ft | 446 kts | 111° |
| 2026-04-21 00:41 | 18.59683 | -98.98683 | 16448 ft | 446 kts | 96° |
| 2026-04-21 00:41 | 18.59546 | -98.95422 | 16487 ft | 447 kts | 91° |
| 2026-04-21 00:42 | 18.59481 | -98.92143 | 16488 ft | 447 kts | 91° |
| 2026-04-21 00:42 | 18.59382 | -98.88870 | 16485 ft | 447 kts | 92° |
| 2026-04-21 00:42 | 18.59249 | -98.85596 | 16576 ft | 447 kts | 92° |
| 2026-04-21 00:42 | 18.59132 | -98.82356 | 16580 ft | 448 kts | 92° |
| 2026-04-21 00:43 | 18.59038 | -98.79075 | 16580 ft | 447 kts | 91° |
| 2026-04-21 00:43 | 18.58941 | -98.75807 | 16580 ft | 446 kts | 91° |
| 2026-04-21 00:43 | 18.59256 | -98.72555 | 16519 ft | 446 kts | 76° |
| 2026-04-21 00:43 | 18.60431 | -98.69529 | 16551 ft | 448 kts | 61° |
| 2026-04-21 00:44 | 18.62353 | -98.66951 | 16574 ft | 448 kts | 46° |
| 2026-04-21 00:44 | 18.64611 | -98.64657 | 16612 ft | 451 kts | 44° |
| 2026-04-21 00:44 | 18.66902 | -98.62399 | 16615 ft | 451 kts | 44° |
| 2026-04-21 00:45 | 18.71575 | -98.58000 | 16565 ft | 453 kts | 33° |
| 2026-04-21 00:45 | 18.74408 | -98.56542 | 16634 ft | 452 kts | 24° |
| 2026-04-21 00:45 | 18.77165 | -98.55274 | 16652 ft | 454 kts | 24° |
| 2026-04-21 00:45 | 18.79991 | -98.53965 | 16661 ft | 454 kts | 24° |
| 2026-04-21 00:46 | 18.82876 | -98.52603 | 16672 ft | 454 kts | 25° |
| 2026-04-21 00:46 | 18.85766 | -98.51240 | 16721 ft | 454 kts | 24° |
| 2026-04-21 00:46 | 18.88655 | -98.49893 | 16763 ft | 454 kts | 24° |
| 2026-04-21 00:46 | 18.91553 | -98.48543 | 16803 ft | 455 kts | 24° |
| 2026-04-21 00:47 | 18.94427 | -98.47192 | 16845 ft | 455 kts | 25° |
| 2026-04-21 00:47 | 18.97306 | -98.45838 | 16884 ft | 455 kts | 25° |
| 2026-04-21 00:47 | 19.00237 | -98.44464 | 16916 ft | 456 kts | 25° |
| 2026-04-21 00:47 | 19.03143 | -98.43103 | 16953 ft | 453 kts | 24° |
| 2026-04-21 00:48 | 19.05982 | -98.41771 | 16981 ft | 448 kts | 25° |
| 2026-04-21 00:48 | 19.08807 | -98.40441 | 16996 ft | 452 kts | 25° |
| 2026-04-21 00:48 | 19.11715 | -98.39075 | 17001 ft | 454 kts | 24° |
| 2026-04-21 00:48 | 19.14577 | -98.37731 | 17002 ft | 455 kts | 24° |
| 2026-04-21 00:49 | 19.17501 | -98.36462 | 16966 ft | 455 kts | 19° |
| 2026-04-21 00:49 | 19.20630 | -98.36015 | 16951 ft | 455 kts | 0° |
| 2026-04-21 00:49 | 19.23759 | -98.36537 | 16965 ft | 457 kts | 343° |
| 2026-04-21 00:49 | 19.26598 | -98.37976 | 16908 ft | 441 kts | 327° |
| 2026-04-21 00:50 | 19.28800 | -98.40042 | 16325 ft | 410 kts | 310° |
| 2026-04-21 00:50 | 19.30325 | -98.42489 | 15609 ft | 388 kts | 297° |
| 2026-04-21 00:50 | 19.31193 | -98.45165 | 14423 ft | 384 kts | 281° |
| 2026-04-21 00:50 | 19.31423 | -98.47946 | 13318 ft | 376 kts | 268° |
| 2026-04-21 00:51 | 19.31027 | -98.50650 | 12235 ft | 369 kts | 254° |
| 2026-04-21 00:51 | 19.30077 | -98.53125 | 11196 ft | 361 kts | 241° |
| 2026-04-21 00:51 | 19.28608 | -98.55302 | 10301 ft | 375 kts | 228° |
| 2026-04-21 00:51 | 19.26542 | -98.57173 | 9899 ft | 404 kts | 214° |
| 2026-04-21 00:52 | 19.24042 | -98.58425 | 10453 ft | 387 kts | 199° |
| 2026-04-21 00:52 | 19.21524 | -98.59206 | 11563 ft | 367 kts | 194° |
| 2026-04-21 00:52 | 19.19116 | -98.59855 | 12786 ft | 351 kts | 193° |
| 2026-04-21 00:52 | 19.16767 | -98.60527 | 13340 ft | 364 kts | 195° |
| 2026-04-21 00:53 | 19.14248 | -98.61299 | 13397 ft | 390 kts | 195° |
| 2026-04-21 00:53 | 19.11558 | -98.62190 | 13025 ft | 419 kts | 196° |
| 2026-04-21 00:53 | 19.08762 | -98.62658 | 13713 ft | 395 kts | 175° |
| 2026-04-21 00:53 | 19.06098 | -98.61983 | 14077 ft | 399 kts | 159° |
| 2026-04-21 00:54 | 19.03691 | -98.60391 | 13710 ft | 420 kts | 140° |
| 2026-04-21 00:54 | 19.01513 | -98.58444 | 13092 ft | 396 kts | 140° |
| 2026-04-21 00:54 | 18.99723 | -98.56409 | 12131 ft | 348 kts | 124° |
| 2026-04-21 00:54 | 18.98830 | -98.54243 | 10482 ft | 318 kts | 105° |
| 2026-04-21 00:55 | 18.98599 | -98.51940 | 9767 ft | 297 kts | 90° |
| 2026-04-21 00:55 | 18.98826 | -98.49858 | 9862 ft | 280 kts | 79° |
| 2026-04-21 00:55 | 18.99442 | -98.47930 | 9891 ft | 276 kts | 66° |
| 2026-04-21 00:55 | 19.00043 | -98.46744 | 9890 ft | 283 kts | 59° |
| 2026-04-21 00:56 | 19.01304 | -98.45018 | 9917 ft | 304 kts | 47° |
| 2026-04-21 00:56 | 19.02908 | -98.43569 | 9941 ft | 304 kts | 35° |
| 2026-04-21 00:56 | 19.04756 | -98.42476 | 9978 ft | 305 kts | 24° |
| 2026-04-21 00:56 | 19.06675 | -98.41541 | 9992 ft | 303 kts | 25° |
| 2026-04-21 00:57 | 19.08591 | -98.40598 | 10009 ft | 303 kts | 24° |
| 2026-04-21 00:57 | 19.10510 | -98.39682 | 9995 ft | 302 kts | 24° |
| 2026-04-21 00:57 | 19.12392 | -98.38791 | 9992 ft | 286 kts | 24° |
| 2026-04-21 00:57 | 19.14138 | -98.37956 | 9985 ft | 266 kts | 24° |
| 2026-04-21 00:58 | 19.15771 | -98.37173 | 9981 ft | 257 kts | 24° |
| 2026-04-21 00:58 | 19.17458 | -98.36552 | 9990 ft | 260 kts | 18° |
| 2026-04-21 00:58 | 19.19127 | -98.35935 | 9971 ft | 234 kts | 20° |
| 2026-04-21 00:58 | 19.20549 | -98.35392 | 9962 ft | 210 kts | 19° |
| 2026-04-21 00:59 | 19.21946 | -98.34880 | 9982 ft | 215 kts | 18° |
| 2026-04-21 00:59 | 19.23366 | -98.34366 | 9986 ft | 217 kts | 19° |
| 2026-04-21 00:59 | 19.24786 | -98.33849 | 9987 ft | 209 kts | 19° |
| 2026-04-21 00:59 | 19.26053 | -98.33386 | 9967 ft | 177 kts | 19° |
| 2026-04-21 01:00 | 19.27119 | -98.32996 | 9948 ft | 151 kts | 19° |
| 2026-04-21 01:00 | 19.28087 | -98.32642 | 9956 ft | 149 kts | 19° |
| 2026-04-21 01:00 | 19.29099 | -98.32273 | 9947 ft | 155 kts | 19° |
| 2026-04-21 01:00 | 19.30125 | -98.31899 | 9940 ft | 157 kts | 19° |
| 2026-04-21 01:01 | 19.31160 | -98.31521 | 9931 ft | 157 kts | 19° |
| 2026-04-21 01:01 | 19.32188 | -98.31153 | 9925 ft | 158 kts | 17° |
| 2026-04-21 01:01 | 19.33276 | -98.31081 | 9916 ft | 157 kts | 353° |
| 2026-04-21 01:01 | 19.34318 | -98.31415 | 9908 ft | 157 kts | 333° |
| 2026-04-21 01:02 | 19.35185 | -98.32108 | 9902 ft | 156 kts | 313° |
| 2026-04-21 01:02 | 19.35772 | -98.33067 | 9926 ft | 157 kts | 292° |
| 2026-04-21 01:02 | 19.36013 | -98.34187 | 9929 ft | 156 kts | 272° |
| 2026-04-21 01:02 | 19.35879 | -98.35318 | 9933 ft | 155 kts | 252° |
| 2026-04-21 01:03 | 19.35388 | -98.36332 | 9944 ft | 155 kts | 233° |
| 2026-04-21 01:03 | 19.34600 | -98.37107 | 9950 ft | 155 kts | 213° |
| 2026-04-21 01:03 | 19.33611 | -98.37549 | 9956 ft | 155 kts | 193° |
| 2026-04-21 01:03 | 19.32537 | -98.37616 | 9973 ft | 155 kts | 177° |
| 2026-04-21 01:04 | 19.31452 | -98.37575 | 9947 ft | 157 kts | 180° |
| 2026-04-21 01:04 | 19.30365 | -98.37588 | 9828 ft | 156 kts | 182° |
| 2026-04-21 01:04 | 19.29283 | -98.37658 | 9702 ft | 155 kts | 185° |
| 2026-04-21 01:04 | 19.28217 | -98.37783 | 9580 ft | 154 kts | 188° |
| 2026-04-21 01:05 | 19.27152 | -98.37883 | 9478 ft | 152 kts | 180° |
| 2026-04-21 01:05 | 19.26104 | -98.37827 | 9411 ft | 153 kts | 175° |
| 2026-04-21 01:05 | 19.25043 | -98.37685 | 9283 ft | 155 kts | 173° |
| 2026-04-21 01:05 | 19.23971 | -98.37541 | 9124 ft | 154 kts | 174° |
| 2026-04-21 01:06 | 19.22914 | -98.37416 | 8938 ft | 153 kts | 178° |
| 2026-04-21 01:06 | 19.21864 | -98.37341 | 8770 ft | 149 kts | 181° |
| 2026-04-21 01:06 | 19.20829 | -98.37311 | 8572 ft | 149 kts | 181° |
| 2026-04-21 01:06 | 19.19788 | -98.37272 | 8230 ft | 151 kts | 181° |
| 2026-04-21 01:07 | 19.18705 | -98.37250 | 7808 ft | 158 kts | 180° |
| 2026-04-21 01:07 | 19.17587 | -98.37205 | 7449 ft | 162 kts | 179° |
| 2026-04-21 01:07 | 19.16501 | -98.37183 | 7363 ft | 145 kts | 179° |
| 2026-04-21 01:07 | 19.15579 | -98.37146 | 7350 ft | 116 kts | 178° |
| 2026-04-21 01:08 | 19.15030 | -98.37118 | 7350 ft | 46 kts | 178° |
| 2026-04-21 01:08 | 19.14827 | -98.37111 | 7350 ft | 9 kts | 126° |
| 2026-04-21 01:08 | 19.14830 | -98.37105 | 7350 ft | 0 kts | 22° |
| 2026-04-21 01:08 | 19.14840 | -98.37107 | 7350 ft | 6 kts | 355° |
| 2026-04-21 01:09 | 19.14924 | -98.37114 | 7350 ft | 18 kts | 355° |
| 2026-04-21 01:09 | 19.15095 | -98.37122 | 7350 ft | 31 kts | 358° |
| 2026-04-21 01:09 | 19.15354 | -98.37132 | 7350 ft | 38 kts | 358° |
| 2026-04-21 01:09 | 19.15603 | -98.37142 | 7350 ft | 33 kts | 358° |
| 2026-04-21 01:10 | 19.15817 | -98.37150 | 7350 ft | 28 kts | 358° |
| 2026-04-21 01:10 | 19.16001 | -98.37159 | 7350 ft | 24 kts | 349° |
| 2026-04-21 01:10 | 19.16121 | -98.37232 | 7350 ft | 17 kts | 330° |
| 2026-04-21 01:10 | 19.16211 | -98.37290 | 7350 ft | 14 kts | 327° |
| 2026-04-21 01:11 | 19.16280 | -98.37336 | 7350 ft | 9 kts | 328° |
| 2026-04-21 01:11 | 19.16314 | -98.37363 | 7350 ft | 4 kts | 311° |
| 2026-04-21 01:11 | 19.16332 | -98.37407 | 7350 ft | 10 kts | 282° |
| 2026-04-21 01:11 | 19.16399 | -98.37436 | 7350 ft | 10 kts | 359° |
| 2026-04-21 01:12 | 19.16453 | -98.37439 | 7350 ft | 5 kts | 352° |
| 2026-04-21 01:12 | 19.16476 | -98.37445 | 7350 ft | 2 kts | 338° |
| 2026-04-21 01:12 | 19.16496 | -98.37453 | 7350 ft | 4 kts | 351° |
| 2026-04-21 01:12 | 19.16509 | -98.37454 | 7350 ft | 0 kts | 357° |
| 2026-04-21 01:13 | 19.16516 | -98.37455 | 7350 ft | 6 kts | 357° |
| 2026-04-21 01:13 | 19.16575 | -98.37456 | 7350 ft | 6 kts | 360° |
| 2026-04-21 01:13 | 19.16583 | -98.37456 | 7350 ft | 0 kts | 360° |